N227QK KLAL-KMCO
Flight info
| Callsign | N227QK |
|---|---|
| Flight time | 0h 19m |
| Altitude | 7000 |
| Route | PRICY MINEE MINEE6 |
| Aircraft | C208/L-SDFGR/C |
Departure
| Time | 2026-04-26 19:34 |
|---|---|
| Airport | Lakeland Linder International Airport (KLAL) |
Arrival
| Time | 2026-04-26 19:54 |
|---|---|
| Airport | Orlando International Airport (KMCO) |
| Time | Latitude | Longitude | Altitude | Speed | Heading |
|---|---|---|---|---|---|
| 2026-04-26 19:24 | 27.99147 | -82.01868 | 147 ft | 0 kts | 269° |
| 2026-04-26 19:30 | 27.99145 | -82.01878 | 147 ft | 6 kts | 248° |
| 2026-04-26 19:31 | 27.99091 | -82.01845 | 147 ft | 11 kts | 152° |
| 2026-04-26 19:31 | 27.99037 | -82.01823 | 147 ft | 10 kts | 93° |
| 2026-04-26 19:31 | 27.99037 | -82.01729 | 147 ft | 14 kts | 89° |
| 2026-04-26 19:31 | 27.99038 | -82.01610 | 147 ft | 16 kts | 89° |
| 2026-04-26 19:32 | 27.99038 | -82.01487 | 147 ft | 15 kts | 90° |
| 2026-04-26 19:32 | 27.99039 | -82.01372 | 147 ft | 14 kts | 90° |
| 2026-04-26 19:32 | 27.99040 | -82.01257 | 147 ft | 18 kts | 89° |
| 2026-04-26 19:32 | 27.99040 | -82.01089 | 147 ft | 20 kts | 88° |
| 2026-04-26 19:33 | 27.99041 | -82.00957 | 147 ft | 15 kts | 90° |
| 2026-04-26 19:33 | 27.99041 | -82.00843 | 147 ft | 14 kts | 90° |
| 2026-04-26 19:33 | 27.99015 | -82.00766 | 148 ft | 8 kts | 164° |
| 2026-04-26 19:33 | 27.98946 | -82.00766 | 147 ft | 9 kts | 201° |
| 2026-04-26 19:34 | 27.98929 | -82.00850 | 147 ft | 25 kts | 269° |
| 2026-04-26 19:34 | 27.98927 | -82.01280 | 270 ft | 73 kts | 264° |
| 2026-04-26 19:34 | 27.98894 | -82.01912 | 686 ft | 85 kts | 263° |
| 2026-04-26 19:34 | 27.98803 | -82.02630 | 1038 ft | 98 kts | 264° |
| 2026-04-26 19:35 | 27.98929 | -82.03455 | 1379 ft | 122 kts | 303° |
| 2026-04-26 19:35 | 27.99728 | -82.03875 | 1712 ft | 140 kts | 353° |
| 2026-04-26 19:35 | 28.00688 | -82.03845 | 2049 ft | 136 kts | 355° |
| 2026-04-26 19:35 | 28.01645 | -82.03856 | 2388 ft | 140 kts | 354° |
| 2026-04-26 19:36 | 28.02618 | -82.03696 | 2699 ft | 147 kts | 23° |
| 2026-04-26 19:36 | 28.03122 | -82.03162 | 2897 ft | 157 kts | 56° |
| 2026-04-26 19:36 | 28.03644 | -82.01579 | 3363 ft | 170 kts | 68° |
| 2026-04-26 19:36 | 28.04094 | -82.00299 | 3685 ft | 178 kts | 65° |
| 2026-04-26 19:37 | 28.04564 | -81.99040 | 4162 ft | 169 kts | 64° |
| 2026-04-26 19:37 | 28.05010 | -81.97848 | 4652 ft | 160 kts | 64° |
| 2026-04-26 19:37 | 28.05435 | -81.96718 | 5116 ft | 152 kts | 65° |
| 2026-04-26 19:37 | 28.05758 | -81.95600 | 5584 ft | 146 kts | 69° |
| 2026-04-26 19:38 | 28.06072 | -81.94531 | 6058 ft | 140 kts | 69° |
| 2026-04-26 19:38 | 28.06371 | -81.93508 | 6523 ft | 133 kts | 68° |
| 2026-04-26 19:38 | 28.06647 | -81.92554 | 6942 ft | 128 kts | 67° |
| 2026-04-26 19:38 | 28.06961 | -81.91486 | 7000 ft | 158 kts | 69° |
| 2026-04-26 19:39 | 28.07316 | -81.90227 | 7009 ft | 177 kts | 69° |
| 2026-04-26 19:39 | 28.07710 | -81.88862 | 7001 ft | 186 kts | 69° |
| 2026-04-26 19:39 | 28.08115 | -81.87459 | 7001 ft | 187 kts | 69° |
| 2026-04-26 19:39 | 28.08518 | -81.86056 | 7003 ft | 187 kts | 69° |
| 2026-04-26 19:40 | 28.08922 | -81.84651 | 7003 ft | 188 kts | 69° |
| 2026-04-26 19:40 | 28.09330 | -81.83232 | 7004 ft | 190 kts | 69° |
| 2026-04-26 19:40 | 28.09743 | -81.81798 | 7001 ft | 193 kts | 70° |
| 2026-04-26 19:40 | 28.10151 | -81.80375 | 6998 ft | 192 kts | 70° |
| 2026-04-26 19:41 | 28.10564 | -81.78937 | 6998 ft | 193 kts | 70° |
| 2026-04-26 19:41 | 28.10998 | -81.77502 | 6992 ft | 191 kts | 62° |
| 2026-04-26 19:41 | 28.11857 | -81.76401 | 6994 ft | 187 kts | 34° |
| 2026-04-26 19:41 | 28.12547 | -81.75819 | 6995 ft | 187 kts | 32° |
| 2026-04-26 19:42 | 28.13941 | -81.74643 | 6997 ft | 187 kts | 33° |
| 2026-04-26 19:42 | 28.14985 | -81.73765 | 6999 ft | 187 kts | 32° |
| 2026-04-26 19:42 | 28.16027 | -81.72887 | 6996 ft | 186 kts | 32° |
| 2026-04-26 19:42 | 28.17117 | -81.72154 | 6999 ft | 184 kts | 24° |
| 2026-04-26 19:43 | 28.18254 | -81.71471 | 6998 ft | 187 kts | 24° |
| 2026-04-26 19:43 | 28.19409 | -81.70777 | 6999 ft | 190 kts | 24° |
| 2026-04-26 19:43 | 28.20591 | -81.70078 | 6987 ft | 191 kts | 24° |
| 2026-04-26 19:43 | 28.21764 | -81.69382 | 6987 ft | 189 kts | 23° |
| 2026-04-26 19:44 | 28.22927 | -81.68690 | 6986 ft | 188 kts | 24° |
| 2026-04-26 19:44 | 28.23857 | -81.67654 | 6977 ft | 193 kts | 60° |
| 2026-04-26 19:44 | 28.24057 | -81.66155 | 6978 ft | 196 kts | 96° |
| 2026-04-26 19:44 | 28.23863 | -81.64632 | 6979 ft | 195 kts | 90° |
| 2026-04-26 19:45 | 28.24259 | -81.63232 | 6978 ft | 190 kts | 49° |
| 2026-04-26 19:45 | 28.25305 | -81.62390 | 6985 ft | 184 kts | 21° |
| 2026-04-26 19:45 | 28.26400 | -81.61622 | 6983 ft | 187 kts | 34° |
| 2026-04-26 19:45 | 28.27383 | -81.60642 | 6985 ft | 188 kts | 38° |
| 2026-04-26 19:46 | 28.28349 | -81.59641 | 6986 ft | 188 kts | 38° |
| 2026-04-26 19:46 | 28.29325 | -81.58658 | 6987 ft | 188 kts | 37° |
| 2026-04-26 19:46 | 28.30248 | -81.57610 | 6982 ft | 189 kts | 47° |
| 2026-04-26 19:46 | 28.31094 | -81.56471 | 6985 ft | 188 kts | 39° |
| 2026-04-26 19:47 | 28.32076 | -81.55497 | 6989 ft | 187 kts | 36° |
| 2026-04-26 19:47 | 28.32733 | -81.54862 | 6988 ft | 188 kts | 37° |
| 2026-04-26 19:47 | 28.34047 | -81.53588 | 6988 ft | 187 kts | 37° |
| 2026-04-26 19:47 | 28.35032 | -81.52617 | 6990 ft | 188 kts | 37° |
| 2026-04-26 19:48 | 28.36017 | -81.51644 | 6987 ft | 187 kts | 37° |
| 2026-04-26 19:48 | 28.37017 | -81.50658 | 6821 ft | 194 kts | 37° |
| 2026-04-26 19:48 | 28.38043 | -81.49641 | 6587 ft | 196 kts | 37° |
| 2026-04-26 19:48 | 28.39063 | -81.48627 | 6355 ft | 195 kts | 37° |
| 2026-04-26 19:49 | 28.40082 | -81.47620 | 6104 ft | 194 kts | 37° |
| 2026-04-26 19:49 | 28.41081 | -81.46631 | 5860 ft | 193 kts | 37° |
| 2026-04-26 19:49 | 28.42089 | -81.45631 | 5610 ft | 192 kts | 37° |
| 2026-04-26 19:49 | 28.43089 | -81.44638 | 5358 ft | 191 kts | 37° |
| 2026-04-26 19:50 | 28.44093 | -81.43642 | 5115 ft | 191 kts | 38° |
| 2026-04-26 19:50 | 28.45097 | -81.42648 | 4880 ft | 192 kts | 37° |
| 2026-04-26 19:50 | 28.46097 | -81.41656 | 4631 ft | 190 kts | 38° |
| 2026-04-26 19:50 | 28.47052 | -81.40697 | 4356 ft | 174 kts | 38° |
| 2026-04-26 19:51 | 28.47920 | -81.39810 | 3791 ft | 164 kts | 39° |
| 2026-04-26 19:51 | 28.48646 | -81.38829 | 3286 ft | 158 kts | 56° |
| 2026-04-26 19:51 | 28.49011 | -81.37697 | 2838 ft | 154 kts | 78° |
| 2026-04-26 19:51 | 28.49064 | -81.36494 | 2362 ft | 152 kts | 89° |
| 2026-04-26 19:52 | 28.49055 | -81.35295 | 1907 ft | 151 kts | 91° |
| 2026-04-26 19:52 | 28.49020 | -81.34110 | 1509 ft | 144 kts | 94° |
| 2026-04-26 19:52 | 28.48754 | -81.33158 | 1505 ft | 118 kts | 135° |
| 2026-04-26 19:52 | 28.48075 | -81.32692 | 1199 ft | 112 kts | 173° |
| 2026-04-26 19:53 | 28.47413 | -81.32705 | 923 ft | 85 kts | 188° |
| 2026-04-26 19:53 | 28.46853 | -81.32717 | 732 ft | 77 kts | 181° |
| 2026-04-26 19:53 | 28.46335 | -81.32714 | 570 ft | 76 kts | 179° |
| 2026-04-26 19:53 | 28.45824 | -81.32705 | 410 ft | 71 kts | 180° |
| 2026-04-26 19:54 | 28.45338 | -81.32707 | 255 ft | 69 kts | 173° |
| 2026-04-26 19:54 | 28.44887 | -81.32706 | 152 ft | 61 kts | 180° |
| 2026-04-26 19:54 | 28.44510 | -81.32701 | 106 ft | 48 kts | 181° |
| 2026-04-26 19:54 | 28.44211 | -81.32691 | 104 ft | 42 kts | 179° |
| 2026-04-26 19:55 | 28.43894 | -81.32689 | 102 ft | 42 kts | 179° |
| 2026-04-26 19:55 | 28.43708 | -81.32689 | 104 ft | 15 kts | 195° |
| 2026-04-26 19:55 | 28.43669 | -81.32797 | 103 ft | 15 kts | 271° |
| 2026-04-26 19:55 | 28.43670 | -81.32886 | 103 ft | 10 kts | 264° |
| 2026-04-26 19:56 | 28.43602 | -81.32929 | 105 ft | 12 kts | 180° |
| 2026-04-26 19:56 | 28.43490 | -81.32930 | 107 ft | 14 kts | 191° |
| 2026-04-26 19:56 | 28.43426 | -81.33017 | 107 ft | 21 kts | 233° |
| 2026-04-26 19:56 | 28.43343 | -81.33132 | 107 ft | 14 kts | 239° |
| 2026-04-26 19:57 | 28.43310 | -81.33175 | 107 ft | 3 kts | 147° |
| 2026-04-26 19:57 | 28.43277 | -81.33165 | 107 ft | 2 kts | 116° |
| 2026-04-26 19:57 | 28.43277 | -81.33162 | 107 ft | 0 kts | 89° |